sensor_id;sensor_type;location;lat;lon;timestamp;pressure;altitude;pressure_sealevel;temperature;humidity
46456;BME280;32154;47.160;8.120;2022-08-03T00:04:41;95882.84;;;22.13;59.46
46456;BME280;32154;47.160;8.120;2022-08-03T00:10:02;95876.22;;;22.22;57.17
46456;BME280;32154;47.160;8.120;2022-08-03T00:15:05;95869.19;;;22.21;58.07
46456;BME280;32154;47.160;8.120;2022-08-03T00:20:34;95867.97;;;22.30;57.25
46456;BME280;32154;47.160;8.120;2022-08-03T00:25:39;95867.97;;;22.24;58.27
46456;BME280;32154;47.160;8.120;2022-08-03T00:30:41;95866.47;;;21.94;59.92
46456;BME280;32154;47.160;8.120;2022-08-03T00:35:45;95871.00;;;21.87;60.26
46456;BME280;32154;47.160;8.120;2022-08-03T00:40:51;95867.72;;;21.92;59.25
46456;BME280;32154;47.160;8.120;2022-08-03T00:45:53;95862.34;;;21.92;58.91
46456;BME280;32154;47.160;8.120;2022-08-03T00:51:14;95866.59;;;21.72;59.88
46456;BME280;32154;47.160;8.120;2022-08-03T00:56:17;95858.63;;;21.86;60.78
46456;BME280;32154;47.160;8.120;2022-08-03T01:01:37;95868.03;;;21.68;60.18
46456;BME280;32154;47.160;8.120;2022-08-03T01:12:34;95859.69;;;21.50;61.39
46456;BME280;32154;47.160;8.120;2022-08-03T01:18:13;95864.03;;;21.51;59.50
46456;BME280;32154;47.160;8.120;2022-08-03T01:30:12;95856.78;;;21.51;59.44
46456;BME280;32154;47.160;8.120;2022-08-03T01:35:16;95867.31;;;21.53;59.40
46456;BME280;32154;47.160;8.120;2022-08-03T01:40:43;95869.94;;;21.39;60.48
46456;BME280;32154;47.160;8.120;2022-08-03T01:45:46;95873.03;;;21.01;60.51
46456;BME280;32154;47.160;8.120;2022-08-03T01:50:50;95865.53;;;20.89;62.64
46456;BME280;32154;47.160;8.120;2022-08-03T01:55:56;95863.16;;;21.08;62.13
46456;BME280;32154;47.160;8.120;2022-08-03T02:01:01;95860.41;;;20.95;62.13
46456;BME280;32154;47.160;8.120;2022-08-03T02:06:04;95853.78;;;20.90;62.66
46456;BME280;32154;47.160;8.120;2022-08-03T02:11:32;95855.00;;;20.88;62.29
46456;BME280;32154;47.160;8.120;2022-08-03T02:16:36;95853.31;;;20.58;62.49
46456;BME280;32154;47.160;8.120;2022-08-03T02:21:57;95849.09;;;20.71;63.09
46456;BME280;32154;47.160;8.120;2022-08-03T02:27:09;95850.72;;;20.94;61.54
46456;BME280;32154;47.160;8.120;2022-08-03T02:32:16;95852.13;;;20.89;61.28
46456;BME280;32154;47.160;8.120;2022-08-03T02:37:24;95851.44;;;20.81;62.13
46456;BME280;32154;47.160;8.120;2022-08-03T02:42:48;95848.44;;;20.69;62.70
46456;BME280;32154;47.160;8.120;2022-08-03T02:48:11;95846.63;;;20.69;60.61
46456;BME280;32154;47.160;8.120;2022-08-03T02:53:17;95856.50;;;20.69;62.66
46456;BME280;32154;47.160;8.120;2022-08-03T02:58:22;95856.56;;;20.54;62.55
46456;BME280;32154;47.160;8.120;2022-08-03T03:03:25;95848.44;;;20.69;61.88
46456;BME280;32154;47.160;8.120;2022-08-03T03:08:35;95852.28;;;20.59;62.49
46456;BME280;32154;47.160;8.120;2022-08-03T03:13:42;95843.66;;;20.35;63.08
46456;BME280;32154;47.160;8.120;2022-08-03T03:19:04;95845.91;;;20.32;63.33
46456;BME280;32154;47.160;8.120;2022-08-03T03:24:08;95847.03;;;20.44;61.74
46456;BME280;32154;47.160;8.120;2022-08-03T03:29:11;95852.19;;;20.46;62.50
46456;BME280;32154;47.160;8.120;2022-08-03T03:34:32;95846.53;;;20.34;62.99
46456;BME280;32154;47.160;8.120;2022-08-03T03:39:34;95845.41;;;19.85;64.30
46456;BME280;32154;47.160;8.120;2022-08-03T03:44:37;95836.72;;;19.98;63.66
46456;BME280;32154;47.160;8.120;2022-08-03T03:49:39;95850.88;;;19.76;63.95
46456;BME280;32154;47.160;8.120;2022-08-03T03:55:01;95847.44;;;20.19;63.46
46456;BME280;32154;47.160;8.120;2022-08-03T04:00:03;95855.72;;;20.25;62.97
46456;BME280;32154;47.160;8.120;2022-08-03T04:05:25;95857.19;;;20.05;62.69
46456;BME280;32154;47.160;8.120;2022-08-03T04:10:28;95856.38;;;19.90;64.67
46456;BME280;32154;47.160;8.120;2022-08-03T04:15:51;95859.84;;;20.05;63.81
46456;BME280;32154;47.160;8.120;2022-08-03T04:20:56;95862.84;;;19.80;64.33
46456;BME280;32154;47.160;8.120;2022-08-03T04:26:21;95863.22;;;20.14;62.57
46456;BME280;32154;47.160;8.120;2022-08-03T04:31:42;95855.59;;;20.11;62.51
46456;BME280;32154;47.160;8.120;2022-08-03T04:36:52;95866.28;;;20.11;62.59
46456;BME280;32154;47.160;8.120;2022-08-03T04:42:19;95871.25;;;20.14;64.16
46456;BME280;32154;47.160;8.120;2022-08-03T04:47:23;95874.69;;;20.30;62.72
46456;BME280;32154;47.160;8.120;2022-08-03T04:52:44;95875.34;;;20.32;62.70
46456;BME280;32154;47.160;8.120;2022-08-03T04:57:47;95871.66;;;20.33;62.48
46456;BME280;32154;47.160;8.120;2022-08-03T05:03:11;95880.75;;;20.17;62.93
46456;BME280;32154;47.160;8.120;2022-08-03T05:08:25;95888.81;;;20.39;63.00
46456;BME280;32154;47.160;8.120;2022-08-03T05:13:29;95885.97;;;20.47;62.86
46456;BME280;32154;47.160;8.120;2022-08-03T05:18:57;95886.41;;;20.72;63.78
46456;BME280;32154;47.160;8.120;2022-08-03T05:24:18;95890.78;;;21.02;60.43
46456;BME280;32154;47.160;8.120;2022-08-03T05:29:41;95892.69;;;20.86;61.70
46456;BME280;32154;47.160;8.120;2022-08-03T05:35:02;95892.81;;;21.00;59.72
46456;BME280;32154;47.160;8.120;2022-08-03T05:40:43;95889.56;;;21.11;59.66
46456;BME280;32154;47.160;8.120;2022-08-03T05:45:58;95896.72;;;21.32;58.07
46456;BME280;32154;47.160;8.120;2022-08-03T05:51:15;95899.06;;;21.42;56.96
46456;BME280;32154;47.160;8.120;2022-08-03T05:56:36;95888.47;;;21.34;56.88
46456;BME280;32154;47.160;8.120;2022-08-03T06:01:41;95894.31;;;21.44;58.58
46456;BME280;32154;47.160;8.120;2022-08-03T06:06:45;95889.69;;;21.67;58.00
46456;BME280;32154;47.160;8.120;2022-08-03T06:12:06;95878.13;;;22.96;53.20
46456;BME280;32154;47.160;8.120;2022-08-03T06:17:14;95880.81;;;24.27;49.95
46456;BME280;32154;47.160;8.120;2022-08-03T06:22:35;95892.72;;;25.65;46.38
46456;BME280;32154;47.160;8.120;2022-08-03T06:27:51;95883.41;;;26.29;45.89
46456;BME280;32154;47.160;8.120;2022-08-03T06:33:13;95882.47;;;27.73;42.63
46456;BME280;32154;47.160;8.120;2022-08-03T06:38:34;95892.81;;;28.17;40.34
46456;BME280;32154;47.160;8.120;2022-08-03T06:43:36;95894.97;;;28.32;39.93
46456;BME280;32154;47.160;8.120;2022-08-03T06:49:19;95891.63;;;29.06;40.82
46456;BME280;32154;47.160;8.120;2022-08-03T06:54:40;95894.19;;;29.52;37.34
46456;BME280;32154;47.160;8.120;2022-08-03T06:59:42;95901.13;;;30.59;35.92
46456;BME280;32154;47.160;8.120;2022-08-03T07:05:05;95891.47;;;31.39;34.90
46456;BME280;32154;47.160;8.120;2022-08-03T07:10:25;95895.75;;;32.73;32.89
46456;BME280;32154;47.160;8.120;2022-08-03T07:15:46;95893.59;;;32.96;35.18
46456;BME280;32154;47.160;8.120;2022-08-03T07:20:59;95894.13;;;32.77;32.48
46456;BME280;32154;47.160;8.120;2022-08-03T07:26:05;95904.44;;;32.44;32.46
46456;BME280;32154;47.160;8.120;2022-08-03T07:31:26;95911.34;;;33.19;31.77
46456;BME280;32154;47.160;8.120;2022-08-03T07:36:34;95910.91;;;33.98;32.28
46456;BME280;32154;47.160;8.120;2022-08-03T07:41:55;95904.00;;;34.16;30.35
46456;BME280;32154;47.160;8.120;2022-08-03T07:46:58;95909.03;;;33.83;31.42
46456;BME280;32154;47.160;8.120;2022-08-03T07:52:04;95909.97;;;33.16;32.57
46456;BME280;32154;47.160;8.120;2022-08-03T07:57:24;95915.31;;;34.44;32.18
46456;BME280;32154;47.160;8.120;2022-08-03T08:02:26;95905.50;;;34.38;30.54
46456;BME280;32154;47.160;8.120;2022-08-03T08:07:28;95909.56;;;34.51;29.15
46456;BME280;32154;47.160;8.120;2022-08-03T08:12:31;95908.81;;;35.44;29.78
46456;BME280;32154;47.160;8.120;2022-08-03T08:17:54;95908.00;;;36.17;27.93
46456;BME280;32154;47.160;8.120;2022-08-03T08:23:15;95905.28;;;35.93;27.18
46456;BME280;32154;47.160;8.120;2022-08-03T08:28:42;95904.41;;;35.97;27.81
46456;BME280;32154;47.160;8.120;2022-08-03T08:33:47;95903.06;;;36.38;25.49
46456;BME280;32154;47.160;8.120;2022-08-03T08:39:04;95905.06;;;36.90;25.67
46456;BME280;32154;47.160;8.120;2022-08-03T08:44:07;95900.22;;;37.34;25.23
46456;BME280;32154;47.160;8.120;2022-08-03T08:49:11;95897.16;;;37.03;24.82
46456;BME280;32154;47.160;8.120;2022-08-03T08:54:36;95892.97;;;36.91;25.74
46456;BME280;32154;47.160;8.120;2022-08-03T08:59:42;95889.00;;;37.31;24.84
46456;BME280;32154;47.160;8.120;2022-08-03T09:04:50;95895.19;;;36.89;23.78
46456;BME280;32154;47.160;8.120;2022-08-03T09:10:13;95897.53;;;37.15;24.77
46456;BME280;32154;47.160;8.120;2022-08-03T09:15:25;95898.16;;;37.26;24.01
46456;BME280;32154;47.160;8.120;2022-08-03T09:20:38;95897.13;;;37.97;23.84
46456;BME280;32154;47.160;8.120;2022-08-03T09:25:41;95894.78;;;37.62;25.17
46456;BME280;32154;47.160;8.120;2022-08-03T09:30:57;95889.56;;;37.89;23.88
46456;BME280;32154;47.160;8.120;2022-08-03T09:35:59;95897.56;;;38.55;23.68
46456;BME280;32154;47.160;8.120;2022-08-03T09:41:02;95899.09;;;38.47;24.46
46456;BME280;32154;47.160;8.120;2022-08-03T09:46:55;95894.66;;;38.23;26.78
46456;BME280;32154;47.160;8.120;2022-08-03T09:52:11;95897.28;;;39.02;24.88
46456;BME280;32154;47.160;8.120;2022-08-03T09:57:38;95899.91;;;39.07;26.05
46456;BME280;32154;47.160;8.120;2022-08-03T10:03:05;95892.41;;;37.83;27.13
46456;BME280;32154;47.160;8.120;2022-08-03T10:08:26;95886.22;;;37.64;26.88
46456;BME280;32154;47.160;8.120;2022-08-03T10:13:28;95883.03;;;38.63;26.96
46456;BME280;32154;47.160;8.120;2022-08-03T10:18:31;95883.19;;;38.44;26.72
46456;BME280;32154;47.160;8.120;2022-08-03T10:23:34;95880.50;;;38.16;27.10
46456;BME280;32154;47.160;8.120;2022-08-03T10:28:56;95882.31;;;38.21;25.52
46456;BME280;32154;47.160;8.120;2022-08-03T10:34:24;95873.88;;;38.17;27.40
46456;BME280;32154;47.160;8.120;2022-08-03T10:39:29;95871.13;;;38.03;28.31
46456;BME280;32154;47.160;8.120;2022-08-03T10:44:38;95866.47;;;38.41;27.53
46456;BME280;32154;47.160;8.120;2022-08-03T10:49:42;95854.59;;;38.54;26.54
46456;BME280;32154;47.160;8.120;2022-08-03T10:54:49;95854.34;;;38.28;29.49
46456;BME280;32154;47.160;8.120;2022-08-03T11:05:29;95858.44;;;38.90;26.86
46456;BME280;32154;47.160;8.120;2022-08-03T11:10:56;95845.56;;;38.40;26.51
46456;BME280;32154;47.160;8.120;2022-08-03T11:16:02;95843.84;;;39.44;26.03
46456;BME280;32154;47.160;8.120;2022-08-03T11:27:16;95846.25;;;38.59;26.77
46456;BME280;32154;47.160;8.120;2022-08-03T11:48:36;95826.97;;;40.03;22.60
46456;BME280;32154;47.160;8.120;2022-08-03T11:53:39;95825.00;;;39.86;23.93
46456;BME280;32154;47.160;8.120;2022-08-03T11:59:01;95808.88;;;39.71;25.13
46456;BME280;32154;47.160;8.120;2022-08-03T12:04:55;95815.03;;;39.59;25.02
46456;BME280;32154;47.160;8.120;2022-08-03T12:10:16;95814.69;;;39.60;24.07
46456;BME280;32154;47.160;8.120;2022-08-03T12:15:27;95800.41;;;38.63;24.19
46456;BME280;32154;47.160;8.120;2022-08-03T12:20:51;95808.94;;;39.07;24.31
46456;BME280;32154;47.160;8.120;2022-08-03T12:26:13;95811.75;;;39.25;24.41
46456;BME280;32154;47.160;8.120;2022-08-03T12:31:38;95804.34;;;38.94;23.97
46456;BME280;32154;47.160;8.120;2022-08-03T12:37:54;95796.88;;;37.61;23.88
46456;BME280;32154;47.160;8.120;2022-08-03T12:44:16;95801.06;;;38.92;25.25
46456;BME280;32154;47.160;8.120;2022-08-03T12:50:06;95788.69;;;38.80;22.33
46456;BME280;32154;47.160;8.120;2022-08-03T12:56:32;95786.47;;;39.23;21.17
46456;BME280;32154;47.160;8.120;2022-08-03T13:09:16;95774.44;;;38.87;20.60
46456;BME280;32154;47.160;8.120;2022-08-03T13:15:28;95772.88;;;38.95;20.93
46456;BME280;32154;47.160;8.120;2022-08-03T13:21:42;95770.63;;;37.92;22.92
46456;BME280;32154;47.160;8.120;2022-08-03T13:27:40;95769.44;;;38.21;21.52
46456;BME280;32154;47.160;8.120;2022-08-03T13:33:32;95764.75;;;39.21;23.32
46456;BME280;32154;47.160;8.120;2022-08-03T13:39:33;95759.75;;;39.32;22.44
46456;BME280;32154;47.160;8.120;2022-08-03T13:45:14;95764.19;;;38.79;19.94
46456;BME280;32154;47.160;8.120;2022-08-03T13:50:16;95765.31;;;38.78;21.97
46456;BME280;32154;47.160;8.120;2022-08-03T13:55:19;95752.75;;;37.38;21.33
46456;BME280;32154;47.160;8.120;2022-08-03T14:00:40;95747.41;;;38.44;21.02
46456;BME280;32154;47.160;8.120;2022-08-03T14:05:42;95748.56;;;38.97;24.44
46456;BME280;32154;47.160;8.120;2022-08-03T14:10:45;95743.22;;;37.22;20.47
46456;BME280;32154;47.160;8.120;2022-08-03T14:15:47;95740.38;;;37.55;22.69
46456;BME280;32154;47.160;8.120;2022-08-03T14:21:11;95725.72;;;37.18;25.50
46456;BME280;32154;47.160;8.120;2022-08-03T14:26:14;95728.94;;;37.34;27.65
46456;BME280;32154;47.160;8.120;2022-08-03T14:31:36;95722.59;;;37.47;24.76
46456;BME280;32154;47.160;8.120;2022-08-03T14:36:59;95720.97;;;36.10;29.20
46456;BME280;32154;47.160;8.120;2022-08-03T14:42:22;95714.25;;;36.35;31.05
46456;BME280;32154;47.160;8.120;2022-08-03T14:47:24;95709.38;;;36.32;33.03
46456;BME280;32154;47.160;8.120;2022-08-03T14:52:26;95703.31;;;36.49;32.63
46456;BME280;32154;47.160;8.120;2022-08-03T14:57:29;95712.66;;;36.81;27.56
46456;BME280;32154;47.160;8.120;2022-08-03T15:02:50;95709.63;;;36.50;29.39
46456;BME280;32154;47.160;8.120;2022-08-03T15:08:10;95706.97;;;35.73;29.35
46456;BME280;32154;47.160;8.120;2022-08-03T15:13:31;95695.03;;;35.83;32.47
46456;BME280;32154;47.160;8.120;2022-08-03T15:18:33;95694.22;;;35.63;29.51
46456;BME280;32154;47.160;8.120;2022-08-03T15:23:36;95683.91;;;35.74;30.29
46456;BME280;32154;47.160;8.120;2022-08-03T15:28:56;95680.97;;;36.04;26.76
46456;BME280;32154;47.160;8.120;2022-08-03T15:34:18;95669.75;;;35.48;26.06
46456;BME280;32154;47.160;8.120;2022-08-03T15:39:20;95674.56;;;35.94;27.61
46456;BME280;32154;47.160;8.120;2022-08-03T15:44:41;95670.69;;;36.14;25.24
46456;BME280;32154;47.160;8.120;2022-08-03T15:50:03;95670.38;;;35.97;25.40
46456;BME280;32154;47.160;8.120;2022-08-03T15:55:28;95664.72;;;35.93;26.31
46456;BME280;32154;47.160;8.120;2022-08-03T16:00:31;95660.41;;;36.06;25.54
46456;BME280;32154;47.160;8.120;2022-08-03T16:05:53;95648.06;;;36.04;27.88
46456;BME280;32154;47.160;8.120;2022-08-03T16:10:59;95645.44;;;35.79;26.11
46456;BME280;32154;47.160;8.120;2022-08-03T16:16:04;95645.31;;;35.51;27.08
46456;BME280;32154;47.160;8.120;2022-08-03T16:21:32;95641.81;;;35.26;27.98
46456;BME280;32154;47.160;8.120;2022-08-03T16:26:48;95648.25;;;34.92;29.40
46456;BME280;32154;47.160;8.120;2022-08-03T16:31:54;95640.69;;;34.30;28.83
46456;BME280;32154;47.160;8.120;2022-08-03T16:37:13;95643.84;;;34.13;28.43
46456;BME280;32154;47.160;8.120;2022-08-03T16:42:42;95639.38;;;34.22;28.16
46456;BME280;32154;47.160;8.120;2022-08-03T16:48:06;95640.06;;;34.09;31.13
46456;BME280;32154;47.160;8.120;2022-08-03T16:53:09;95636.78;;;34.06;32.73
46456;BME280;32154;47.160;8.120;2022-08-03T16:58:36;95643.34;;;34.05;32.86
46456;BME280;32154;47.160;8.120;2022-08-03T17:03:45;95645.63;;;33.98;32.37
46456;BME280;32154;47.160;8.120;2022-08-03T17:09:11;95642.34;;;33.91;34.40
46456;BME280;32154;47.160;8.120;2022-08-03T17:14:20;95638.31;;;33.83;30.34
46456;BME280;32154;47.160;8.120;2022-08-03T17:19:23;95641.38;;;33.76;30.12
46456;BME280;32154;47.160;8.120;2022-08-03T17:29:59;95646.91;;;33.66;32.06
46456;BME280;32154;47.160;8.120;2022-08-03T17:35:04;95644.56;;;33.49;30.78
46456;BME280;32154;47.160;8.120;2022-08-03T17:40:27;95644.59;;;33.39;31.68
46456;BME280;32154;47.160;8.120;2022-08-03T17:45:32;95652.78;;;33.44;32.18
46456;BME280;32154;47.160;8.120;2022-08-03T17:51:19;95656.38;;;33.39;29.06
46456;BME280;32154;47.160;8.120;2022-08-03T18:01:55;95665.19;;;33.20;32.82
46456;BME280;32154;47.160;8.120;2022-08-03T18:07:08;95662.88;;;32.93;37.67
46456;BME280;32154;47.160;8.120;2022-08-03T18:12:24;95662.06;;;32.77;40.93
46456;BME280;32154;47.160;8.120;2022-08-03T18:17:31;95673.59;;;32.53;44.16
46456;BME280;32154;47.160;8.120;2022-08-03T18:22:54;95671.44;;;32.24;43.95
46456;BME280;32154;47.160;8.120;2022-08-03T18:27:58;95669.28;;;32.00;46.91
46456;BME280;32154;47.160;8.120;2022-08-03T18:33:01;95670.84;;;31.70;43.59
46456;BME280;32154;47.160;8.120;2022-08-03T18:38:43;95668.69;;;31.62;45.69
46456;BME280;32154;47.160;8.120;2022-08-03T18:43:47;95671.34;;;31.41;44.76
46456;BME280;32154;47.160;8.120;2022-08-03T18:55:00;95675.75;;;30.83;45.32
46456;BME280;32154;47.160;8.120;2022-08-03T19:00:22;95678.44;;;30.35;45.47
46456;BME280;32154;47.160;8.120;2022-08-03T19:06:05;95681.69;;;30.37;42.92
46456;BME280;32154;47.160;8.120;2022-08-03T19:11:31;95672.34;;;30.18;44.08
46456;BME280;32154;47.160;8.120;2022-08-03T19:17:15;95689.44;;;29.85;44.98
46456;BME280;32154;47.160;8.120;2022-08-03T19:22:22;95693.00;;;29.58;46.98
46456;BME280;32154;47.160;8.120;2022-08-03T19:27:29;95699.72;;;29.28;47.87
46456;BME280;32154;47.160;8.120;2022-08-03T19:32:51;95702.00;;;28.92;47.66
46456;BME280;32154;47.160;8.120;2022-08-03T19:37:58;95709.09;;;28.76;45.81
46456;BME280;32154;47.160;8.120;2022-08-03T19:43:45;95703.50;;;28.83;46.41
46456;BME280;32154;47.160;8.120;2022-08-03T19:49:18;95709.84;;;28.71;47.08
46456;BME280;32154;47.160;8.120;2022-08-03T19:54:21;95708.00;;;28.77;43.63
46456;BME280;32154;47.160;8.120;2022-08-03T19:59:36;95705.47;;;28.87;42.29
46456;BME280;32154;47.160;8.120;2022-08-03T20:04:56;95708.31;;;28.98;42.83
46456;BME280;32154;47.160;8.120;2022-08-03T20:10:21;95713.13;;;28.73;41.95
46456;BME280;32154;47.160;8.120;2022-08-03T20:15:24;95714.50;;;28.93;42.49
46456;BME280;32154;47.160;8.120;2022-08-03T20:20:53;95717.41;;;29.09;42.97
46456;BME280;32154;47.160;8.120;2022-08-03T20:26:15;95715.56;;;28.92;44.61
46456;BME280;32154;47.160;8.120;2022-08-03T20:31:20;95713.66;;;28.36;49.55
46456;BME280;32154;47.160;8.120;2022-08-03T20:36:36;95703.88;;;28.01;48.28
46456;BME280;32154;47.160;8.120;2022-08-03T20:41:39;95701.09;;;27.96;48.56
46456;BME280;32154;47.160;8.120;2022-08-03T20:47:02;95708.63;;;27.94;47.65
46456;BME280;32154;47.160;8.120;2022-08-03T20:52:12;95705.03;;;27.88;48.05
46456;BME280;32154;47.160;8.120;2022-08-03T20:57:20;95696.53;;;27.67;47.64
46456;BME280;32154;47.160;8.120;2022-08-03T21:02:41;95702.03;;;27.43;49.04
46456;BME280;32154;47.160;8.120;2022-08-03T21:08:03;95696.59;;;27.55;47.47
46456;BME280;32154;47.160;8.120;2022-08-03T21:18:49;95707.09;;;27.40;50.64
46456;BME280;32154;47.160;8.120;2022-08-03T21:24:11;95701.19;;;27.14;49.86
46456;BME280;32154;47.160;8.120;2022-08-03T21:29:32;95693.97;;;27.31;48.29
46456;BME280;32154;47.160;8.120;2022-08-03T21:35:13;95695.38;;;26.93;52.18
46456;BME280;32154;47.160;8.120;2022-08-03T21:40:16;95696.06;;;26.76;50.73
46456;BME280;32154;47.160;8.120;2022-08-03T21:45:18;95701.50;;;26.52;50.77
46456;BME280;32154;47.160;8.120;2022-08-03T21:50:40;95694.81;;;26.55;51.26
46456;BME280;32154;47.160;8.120;2022-08-03T21:56:06;95697.53;;;26.43;51.77
46456;BME280;32154;47.160;8.120;2022-08-03T22:01:08;95698.09;;;26.33;52.10
46456;BME280;32154;47.160;8.120;2022-08-03T22:06:29;95702.19;;;26.12;52.23
46456;BME280;32154;47.160;8.120;2022-08-03T22:11:50;95699.97;;;26.21;52.20
46456;BME280;32154;47.160;8.120;2022-08-03T22:17:12;95711.81;;;26.08;51.73
46456;BME280;32154;47.160;8.120;2022-08-03T22:22:55;95708.06;;;26.09;51.18
46456;BME280;32154;47.160;8.120;2022-08-03T22:28:01;95713.66;;;25.95;53.04
46456;BME280;32154;47.160;8.120;2022-08-03T22:33:25;95713.88;;;25.82;52.39
46456;BME280;32154;47.160;8.120;2022-08-03T22:38:29;95718.16;;;25.59;53.55
46456;BME280;32154;47.160;8.120;2022-08-03T22:43:52;95730.09;;;25.51;53.31
46456;BME280;32154;47.160;8.120;2022-08-03T22:48:57;95728.69;;;25.49;53.63
46456;BME280;32154;47.160;8.120;2022-08-03T22:54:01;95722.28;;;25.43;53.55
46456;BME280;32154;47.160;8.120;2022-08-03T22:59:06;95731.97;;;25.51;54.71
46456;BME280;32154;47.160;8.120;2022-08-03T23:04:31;95729.72;;;25.29;54.00
46456;BME280;32154;47.160;8.120;2022-08-03T23:09:34;95733.44;;;25.16;54.27
46456;BME280;32154;47.160;8.120;2022-08-03T23:14:37;95724.94;;;25.31;54.89
46456;BME280;32154;47.160;8.120;2022-08-03T23:19:41;95730.06;;;25.21;54.97
46456;BME280;32154;47.160;8.120;2022-08-03T23:24:46;95732.75;;;25.02;56.10
46456;BME280;32154;47.160;8.120;2022-08-03T23:30:08;95726.31;;;25.03;56.10
46456;BME280;32154;47.160;8.120;2022-08-03T23:35:11;95723.84;;;24.83;55.94
46456;BME280;32154;47.160;8.120;2022-08-03T23:40:14;95726.09;;;24.86;54.42
46456;BME280;32154;47.160;8.120;2022-08-03T23:45:18;95723.19;;;24.88;56.12
46456;BME280;32154;47.160;8.120;2022-08-03T23:50:20;95725.78;;;24.76;55.71
46456;BME280;32154;47.160;8.120;2022-08-03T23:55:55;95728.16;;;24.65;57.69
